Terminal Aerodrome Forecast
Issued by NWS

Home | Current Version | Previous Version | Text Only | Print | Product List | Glossary On
Versions: 1 2 3 4 5 6 7 8 9 10 11 12 13 14
754
FTUS45 KRIW 242047 AAA
TAFBPI
TAF AMD
KBPI 242047Z 2421/2518 30011KT P6SM VCSH SCT110
      TEMPO 2421/2423 VRB15G25KT -SHRA
     FM250200 35007KT P6SM SCT110
     FM250800 VRB05KT P6SM SCT110 BKN150
     FM251200 35007KT P6SM BKN100
     FM251600 VRB10G16KT P6SM VCSH SCT060 BKN090=

USA.gov is the U.S. government's official web portal to all federal, state and local government web resources and services.